Flight Track Log - Related Links

Times and Time Zones

All times are in EDT time to prevent confusion due to time zone crossing. See the OPT452 flight status page for this flight to view local times or setup timezone preferences in your user account.

Time Position Orientation Groundspeed Altitude Reporting Facility
EDT Latitude Longitude Course Direction KTS MPH feet Rate Location/Type
Tue 09:09:40 AM 43.1203 -77.6906 228° Southwest 150 173 1,400  Level Cleveland Center
Tue 09:11:09 AM 43.0781 -77.7550 228° Southwest 188 216 6,200 3,181 Climbing Cleveland Center
Tue 09:12:09 AM 43.0386 -77.6800 126° Southeast 145 167 9,300 3,000 Climbing Cleveland Center
Tue 09:13:09 AM 43.0092 -77.5878 114° Southeast 195 224 12,200 2,950 Climbing Cleveland Center
Tue 09:14:09 AM 42.9794 -77.4928 113° Southeast 234 269 15,200 2,700 Climbing Cleveland Center
Tue 09:15:09 AM 42.9497 -77.3947 112° Southeast 265 305 17,600 2,100 Climbing Cleveland Center
Tue 09:16:09 AM 42.9178 -77.2886 112° Southeast 285 328 19,400 1,963 Climbing Cleveland Center
Tue 09:17:51 AM 42.8592 -77.1061 114° Southeast 300 345 22,900 1,963 Climbing Boston Center
Tue 09:18:51 AM 42.8242 -76.9900 112° Southeast 316 364 24,700 1,550 Climbing Boston Center
Tue 09:19:51 AM 42.7875 -76.8628 111° Southeast 336 387 26,000 1,150 Climbing Boston Center
Tue 09:20:51 AM 42.7467 -76.7353 114° Southeast 353 406 27,000 500 Climbing Boston Center
Tue 09:21:51 AM 42.7017 -76.5939 113° Southeast 380 437 27,000  Level Boston Center
Tue 09:22:51 AM 42.6569 -76.4467 112° Southeast 398 458 27,000  Level Boston Center
Tue 09:23:51 AM 42.6139 -76.3083 113° Southeast 405 466 27,000  Level Boston Center
Tue 09:24:51 AM 42.5725 -76.1761 113° Southeast 405 466 27,000  Level Boston Center
Tue 09:25:50 AM 42.5364 -76.0642 114° Southeast 405 466 27,000  Level Boston Center
Tue 09:26:51 AM 42.4814 -75.8919 113° Southeast 405 466 27,000  Level Boston Center
Tue 09:27:51 AM 42.4356 -75.7486 113° Southeast 405 466 27,000  Level Boston Center
Tue 09:28:51 AM 42.3894 -75.6111 114° Southeast 405 466 27,000 -50 Level Boston Center
Tue 09:29:51 AM 42.3453 -75.4683 113° Southeast 405 466 26,900 -1,200 Descending Boston Center
Tue 09:30:51 AM 42.2992 -75.3203 113° Southeast 405 466 24,600 -2,420 Descending Boston Center
Tue 09:31:50 AM 42.2547 -75.1836 114° Southeast 405 466 22,100 -2,350 Descending Boston Center
Tue 09:32:51 AM 42.2117 -75.0583 115° Southeast 388 447 19,900 -2,033 Descending Boston Center
Tue 09:33:51 AM 42.1706 -74.9389 115° Southeast 365 420 18,000 -950 Descending Boston Center
Tue 09:34:51 AM 42.1231 -74.8278 120° Southeast 350 403 18,000 -46 Level Boston Center
Tue 09:36:02 AM 42.0753 -74.7169 120° Southeast 345 397 17,900 -500 Descending Boston Center
Tue 09:37:03 AM 42.0069 -74.5886 126° Southeast 350 403 16,900 -1,150 Descending Boston Center
Tue 09:38:02 AM 41.9458 -74.5083 136° Southeast 333 383 15,600 -1,400 Descending Boston Center
Tue 09:39:03 AM 41.8725 -74.4197 138° Southeast 332 382 14,100 -1,438 Descending Boston Center
Tue 09:40:03 AM 41.7947 -74.3419 143° Southeast 327 376 12,700 -1,300 Descending Boston Center
Tue 09:41:03 AM 41.7308 -74.2844 146° Southeast 310 357 11,500 -1,150 Descending Boston Center
Tue 09:42:03 AM 41.6631 -74.2214 145° Southeast 280 322 10,400 -1,050 Descending Boston Center
Tue 09:43:03 AM 41.6078 -74.1697 145° Southeast 274 315 9,400 -1,050 Descending Boston Center
Tue 09:44:03 AM 41.5419 -74.1097 146° Southeast 268 308 8,300 -1,034 Descending Boston Center
Tue 09:44:59 AM 41.4833 -74.0500 143° Southeast 269 310 7,400 -1,027 Descending New York TRACON
Tue 09:45:54 AM 41.4333 -74.0000 143° Southeast 269 310 6,400 -1,043 Descending New York TRACON
Tue 09:46:54 AM 41.3667 -73.9500 151° Southeast 264 304 5,400 -1,050 Descending New York TRACON
Tue 09:47:54 AM 41.3000 -73.9000 151° Southeast 261 300 4,300 -950 Descending New York TRACON
Tue 09:48:54 AM 41.2500 -73.8500 143° Southeast 254 292 3,500 -600 Descending New York TRACON
Tue 09:49:54 AM 41.1833 -73.8000 151° Southeast 230 265 3,100 -750 Descending New York TRACON
Tue 09:50:54 AM 41.1333 -73.7667 153° Southeast 197 227 2,000 -1,050 Descending New York TRACON
Tue 09:51:54 AM 41.1000 -73.7333 143° Southeast 154 177 1,000 -1,000 Descending New York TRACON
Tue 09:53:00 AM 41.0667 -73.7000 147° Southeast  Level FlightAware Approximate
Tue 10:00:00 AM 41.0669 -73.7076 147° Southeast  Level Estimated
Tue 10:01:00 AM 41.0667 -73.7000 147° Southeast  Level FlightAware Approximate

Login

Don't have an account? Register now (free) for customized features, flight alerts, and more!